sensor_id;sensor_type;location;lat;lon;timestamp;temperature;humidity
72320;SHT30;60269;52.502;16.732;2022-07-09T00:02:30;12.57;96.83
72320;SHT30;60269;52.502;16.732;2022-07-09T00:06:02;12.52;96.91
72320;SHT30;60269;52.502;16.732;2022-07-09T00:09:34;12.49;96.90
72320;SHT30;60269;52.502;16.732;2022-07-09T00:13:06;12.56;97.06
72320;SHT30;60269;52.502;16.732;2022-07-09T00:16:38;12.55;96.82
72320;SHT30;60269;52.502;16.732;2022-07-09T00:20:10;12.46;96.97
72320;SHT30;60269;52.502;16.732;2022-07-09T00:23:42;12.47;97.27
72320;SHT30;60269;52.502;16.732;2022-07-09T00:27:14;12.50;97.27
72320;SHT30;60269;52.502;16.732;2022-07-09T00:30:46;12.49;97.17
72320;SHT30;60269;52.502;16.732;2022-07-09T00:34:17;12.60;96.99
72320;SHT30;60269;52.502;16.732;2022-07-09T00:37:49;12.61;97.12
72320;SHT30;60269;52.502;16.732;2022-07-09T00:41:21;12.77;96.73
72320;SHT30;60269;52.502;16.732;2022-07-09T00:44:53;12.95;96.09
72320;SHT30;60269;52.502;16.732;2022-07-09T00:48:24;13.10;95.32
72320;SHT30;60269;52.502;16.732;2022-07-09T00:51:57;13.12;95.19
72320;SHT30;60269;52.502;16.732;2022-07-09T00:55:29;13.12;94.85
72320;SHT30;60269;52.502;16.732;2022-07-09T00:59:03;13.01;95.10
72320;SHT30;60269;52.502;16.732;2022-07-09T01:02:40;12.91;95.34
72320;SHT30;60269;52.502;16.732;2022-07-09T01:06:12;12.97;95.08
72320;SHT30;60269;52.502;16.732;2022-07-09T01:09:45;12.83;95.28
72320;SHT30;60269;52.502;16.732;2022-07-09T01:13:17;12.88;95.21
72320;SHT30;60269;52.502;16.732;2022-07-09T01:17:00;12.83;95.21
72320;SHT30;60269;52.502;16.732;2022-07-09T01:20:32;12.81;95.20
72320;SHT30;60269;52.502;16.732;2022-07-09T01:24:04;12.77;95.47
72320;SHT30;60269;52.502;16.732;2022-07-09T01:27:36;12.86;95.06
72320;SHT30;60269;52.502;16.732;2022-07-09T01:31:08;12.88;94.76
72320;SHT30;60269;52.502;16.732;2022-07-09T01:34:40;12.76;94.80
72320;SHT30;60269;52.502;16.732;2022-07-09T01:38:11;12.66;95.04
72320;SHT30;60269;52.502;16.732;2022-07-09T01:41:43;12.49;95.21
72320;SHT30;60269;52.502;16.732;2022-07-09T01:45:16;12.36;95.62
72320;SHT30;60269;52.502;16.732;2022-07-09T01:48:48;12.32;95.89
72320;SHT30;60269;52.502;16.732;2022-07-09T01:52:19;12.25;96.11
72320;SHT30;60269;52.502;16.732;2022-07-09T01:55:51;12.28;96.35
72320;SHT30;60269;52.502;16.732;2022-07-09T01:59:23;12.32;96.23
72320;SHT30;60269;52.502;16.732;2022-07-09T02:02:55;12.42;95.94
72320;SHT30;60269;52.502;16.732;2022-07-09T02:06:27;12.46;95.79
72320;SHT30;60269;52.502;16.732;2022-07-09T02:09:59;12.46;95.83
72320;SHT30;60269;52.502;16.732;2022-07-09T02:13:31;12.52;95.77
72320;SHT30;60269;52.502;16.732;2022-07-09T02:17:03;12.59;95.80
72320;SHT30;60269;52.502;16.732;2022-07-09T02:20:35;12.60;95.60
72320;SHT30;60269;52.502;16.732;2022-07-09T02:24:07;12.55;95.69
72320;SHT30;60269;52.502;16.732;2022-07-09T02:27:39;12.46;95.66
72320;SHT30;60269;52.502;16.732;2022-07-09T02:31:11;12.37;95.85
72320;SHT30;60269;52.502;16.732;2022-07-09T02:34:43;12.30;95.86
72320;SHT30;60269;52.502;16.732;2022-07-09T02:38:15;12.35;96.28
72320;SHT30;60269;52.502;16.732;2022-07-09T02:41:47;12.36;96.45
72320;SHT30;60269;52.502;16.732;2022-07-09T02:45:19;12.32;96.26
72320;SHT30;60269;52.502;16.732;2022-07-09T02:48:50;12.22;96.55
72320;SHT30;60269;52.502;16.732;2022-07-09T02:52:23;12.18;96.78
72320;SHT30;60269;52.502;16.732;2022-07-09T02:55:54;12.17;96.83
72320;SHT30;60269;52.502;16.732;2022-07-09T02:59:26;12.09;97.15
72320;SHT30;60269;52.502;16.732;2022-07-09T03:02:58;11.99;97.23
72320;SHT30;60269;52.502;16.732;2022-07-09T03:06:30;11.95;97.27
72320;SHT30;60269;52.502;16.732;2022-07-09T03:10:02;11.98;97.36
72320;SHT30;60269;52.502;16.732;2022-07-09T03:13:35;11.98;97.41
72320;SHT30;60269;52.502;16.732;2022-07-09T03:17:07;11.97;97.11
72320;SHT30;60269;52.502;16.732;2022-07-09T03:20:39;11.94;97.13
72320;SHT30;60269;52.502;16.732;2022-07-09T03:24:10;12.01;97.04
72320;SHT30;60269;52.502;16.732;2022-07-09T03:27:43;12.09;96.96
72320;SHT30;60269;52.502;16.732;2022-07-09T03:31:16;12.12;96.76
72320;SHT30;60269;52.502;16.732;2022-07-09T03:34:48;12.19;96.68
72320;SHT30;60269;52.502;16.732;2022-07-09T03:38:20;12.25;96.33
72320;SHT30;60269;52.502;16.732;2022-07-09T03:41:52;12.17;96.27
72320;SHT30;60269;52.502;16.732;2022-07-09T03:45:24;12.19;96.26
72320;SHT30;60269;52.502;16.732;2022-07-09T03:48:56;12.26;96.26
72320;SHT30;60269;52.502;16.732;2022-07-09T03:52:28;12.29;96.12
72320;SHT30;60269;52.502;16.732;2022-07-09T03:55:59;12.29;96.00
72320;SHT30;60269;52.502;16.732;2022-07-09T03:59:32;12.29;96.02
72320;SHT30;60269;52.502;16.732;2022-07-09T04:03:04;12.35;96.04
72320;SHT30;60269;52.502;16.732;2022-07-09T04:06:35;12.40;95.95
72320;SHT30;60269;52.502;16.732;2022-07-09T04:10:07;12.49;95.61
72320;SHT30;60269;52.502;16.732;2022-07-09T04:13:39;12.57;95.41
72320;SHT30;60269;52.502;16.732;2022-07-09T04:17:11;12.66;95.26
72320;SHT30;60269;52.502;16.732;2022-07-09T04:20:43;12.76;94.99
72320;SHT30;60269;52.502;16.732;2022-07-09T04:24:15;12.91;94.57
72320;SHT30;60269;52.502;16.732;2022-07-09T04:27:47;13.10;94.23
72320;SHT30;60269;52.502;16.732;2022-07-09T04:31:19;13.24;93.81
72320;SHT30;60269;52.502;16.732;2022-07-09T04:34:53;13.51;93.26
72320;SHT30;60269;52.502;16.732;2022-07-09T04:38:25;13.39;93.02
72320;SHT30;60269;52.502;16.732;2022-07-09T04:41:56;13.53;92.64
72320;SHT30;60269;52.502;16.732;2022-07-09T04:45:28;13.58;92.59
72320;SHT30;60269;52.502;16.732;2022-07-09T04:49:01;13.61;92.24
72320;SHT30;60269;52.502;16.732;2022-07-09T04:52:32;13.89;91.39
72320;SHT30;60269;52.502;16.732;2022-07-09T04:56:04;14.07;90.51
72320;SHT30;60269;52.502;16.732;2022-07-09T04:59:38;14.62;87.96
72320;SHT30;60269;52.502;16.732;2022-07-09T05:03:10;14.45;88.76
72320;SHT30;60269;52.502;16.732;2022-07-09T05:06:41;15.06;86.90
72320;SHT30;60269;52.502;16.732;2022-07-09T05:10:13;15.40;84.69
72320;SHT30;60269;52.502;16.732;2022-07-09T05:13:45;15.19;85.47
72320;SHT30;60269;52.502;16.732;2022-07-09T05:17:20;15.04;85.53
72320;SHT30;60269;52.502;16.732;2022-07-09T05:20:52;15.09;85.10
72320;SHT30;60269;52.502;16.732;2022-07-09T05:24:24;14.75;86.08
72320;SHT30;60269;52.502;16.732;2022-07-09T05:27:55;14.49;87.20
72320;SHT30;60269;52.502;16.732;2022-07-09T05:31:27;14.52;87.31
72320;SHT30;60269;52.502;16.732;2022-07-09T05:35:07;14.73;87.10
72320;SHT30;60269;52.502;16.732;2022-07-09T05:38:39;14.90;85.94
72320;SHT30;60269;52.502;16.732;2022-07-09T05:42:11;14.98;85.27
72320;SHT30;60269;52.502;16.732;2022-07-09T05:45:43;15.44;83.72
72320;SHT30;60269;52.502;16.732;2022-07-09T05:49:15;15.44;83.34
72320;SHT30;60269;52.502;16.732;2022-07-09T05:52:47;15.64;81.38
72320;SHT30;60269;52.502;16.732;2022-07-09T05:56:19;15.61;80.78
72320;SHT30;60269;52.502;16.732;2022-07-09T05:59:51;15.67;79.97
72320;SHT30;60269;52.502;16.732;2022-07-09T06:03:23;16.04;77.58
72320;SHT30;60269;52.502;16.732;2022-07-09T06:06:55;16.29;75.86
72320;SHT30;60269;52.502;16.732;2022-07-09T06:10:26;16.42;75.55
72320;SHT30;60269;52.502;16.732;2022-07-09T06:13:58;16.09;74.18
72320;SHT30;60269;52.502;16.732;2022-07-09T06:17:30;15.81;73.44
72320;SHT30;60269;52.502;16.732;2022-07-09T06:21:02;15.64;72.83
72320;SHT30;60269;52.502;16.732;2022-07-09T06:24:34;15.84;70.19
72320;SHT30;60269;52.502;16.732;2022-07-09T06:28:06;16.17;69.19
72320;SHT30;60269;52.502;16.732;2022-07-09T06:31:38;16.61;68.46
72320;SHT30;60269;52.502;16.732;2022-07-09T06:35:09;17.46;64.02
72320;SHT30;60269;52.502;16.732;2022-07-09T06:38:42;17.76;63.55
72320;SHT30;60269;52.502;16.732;2022-07-09T06:42:32;17.47;63.23
72320;SHT30;60269;52.502;16.732;2022-07-09T06:46:06;17.67;63.31
72320;SHT30;60269;52.502;16.732;2022-07-09T06:49:38;17.11;63.99
72320;SHT30;60269;52.502;16.732;2022-07-09T06:53:10;17.70;62.06
72320;SHT30;60269;52.502;16.732;2022-07-09T06:56:42;18.38;59.01
72320;SHT30;60269;52.502;16.732;2022-07-09T07:00:14;19.03;57.10
72320;SHT30;60269;52.502;16.732;2022-07-09T07:03:46;18.29;58.97
72320;SHT30;60269;52.502;16.732;2022-07-09T07:07:18;17.70;60.52
72320;SHT30;60269;52.502;16.732;2022-07-09T07:10:49;18.52;58.59
72320;SHT30;60269;52.502;16.732;2022-07-09T07:14:21;19.72;54.80
72320;SHT30;60269;52.502;16.732;2022-07-09T07:17:53;19.78;55.26
72320;SHT30;60269;52.502;16.732;2022-07-09T07:21:29;18.41;58.39
72320;SHT30;60269;52.502;16.732;2022-07-09T07:25:00;17.40;61.27
72320;SHT30;60269;52.502;16.732;2022-07-09T07:28:32;17.22;62.14
72320;SHT30;60269;52.502;16.732;2022-07-09T07:32:05;17.80;60.29
72320;SHT30;60269;52.502;16.732;2022-07-09T07:35:37;17.56;61.22
72320;SHT30;60269;52.502;16.732;2022-07-09T07:39:09;17.87;61.12
72320;SHT30;60269;52.502;16.732;2022-07-09T07:42:41;17.65;61.12
72320;SHT30;60269;52.502;16.732;2022-07-09T07:46:13;17.19;61.78
72320;SHT30;60269;52.502;16.732;2022-07-09T07:49:45;17.04;62.38
72320;SHT30;60269;52.502;16.732;2022-07-09T07:53:17;17.36;60.95
72320;SHT30;60269;52.502;16.732;2022-07-09T07:56:49;18.38;57.96
72320;SHT30;60269;52.502;16.732;2022-07-09T08:00:21;17.90;58.33
72320;SHT30;60269;52.502;16.732;2022-07-09T08:03:54;18.02;58.43
72320;SHT30;60269;52.502;16.732;2022-07-09T08:07:26;18.08;58.78
72320;SHT30;60269;52.502;16.732;2022-07-09T08:10:58;17.74;59.46
72320;SHT30;60269;52.502;16.732;2022-07-09T08:14:30;17.87;59.08
72320;SHT30;60269;52.502;16.732;2022-07-09T08:18:02;18.34;58.21
72320;SHT30;60269;52.502;16.732;2022-07-09T08:21:33;18.01;57.42
72320;SHT30;60269;52.502;16.732;2022-07-09T08:25:06;17.89;58.52
72320;SHT30;60269;52.502;16.732;2022-07-09T08:28:44;17.47;59.82
72320;SHT30;60269;52.502;16.732;2022-07-09T08:32:16;17.45;60.84
72320;SHT30;60269;52.502;16.732;2022-07-09T08:35:48;17.33;61.36
72320;SHT30;60269;52.502;16.732;2022-07-09T08:39:20;17.50;61.63
72320;SHT30;60269;52.502;16.732;2022-07-09T08:42:55;17.73;61.25
72320;SHT30;60269;52.502;16.732;2022-07-09T08:46:28;17.98;59.69
72320;SHT30;60269;52.502;16.732;2022-07-09T08:50:00;18.49;59.42
72320;SHT30;60269;52.502;16.732;2022-07-09T08:53:34;19.79;55.19
72320;SHT30;60269;52.502;16.732;2022-07-09T08:57:06;20.82;51.40
72320;SHT30;60269;52.502;16.732;2022-07-09T09:00:38;21.39;48.52
72320;SHT30;60269;52.502;16.732;2022-07-09T09:04:09;21.57;48.57
72320;SHT30;60269;52.502;16.732;2022-07-09T09:07:42;21.05;49.82
72320;SHT30;60269;52.502;16.732;2022-07-09T09:11:16;19.48;53.05
72320;SHT30;60269;52.502;16.732;2022-07-09T09:14:51;19.57;53.84
72320;SHT30;60269;52.502;16.732;2022-07-09T09:18:22;20.03;53.36
72320;SHT30;60269;52.502;16.732;2022-07-09T09:21:55;19.78;51.95
72320;SHT30;60269;52.502;16.732;2022-07-09T09:25:28;20.00;50.08
72320;SHT30;60269;52.502;16.732;2022-07-09T09:29:02;20.34;50.12
72320;SHT30;60269;52.502;16.732;2022-07-09T09:32:34;20.65;48.33
72320;SHT30;60269;52.502;16.732;2022-07-09T09:36:06;20.79;48.29
72320;SHT30;60269;52.502;16.732;2022-07-09T09:39:38;20.98;47.70
72320;SHT30;60269;52.502;16.732;2022-07-09T09:43:11;20.74;48.13
72320;SHT30;60269;52.502;16.732;2022-07-09T09:46:46;20.78;48.19
72320;SHT30;60269;52.502;16.732;2022-07-09T09:50:24;20.48;50.44
72320;SHT30;60269;52.502;16.732;2022-07-09T09:53:58;20.41;50.59
72320;SHT30;60269;52.502;16.732;2022-07-09T09:57:30;20.13;51.03
72320;SHT30;60269;52.502;16.732;2022-07-09T10:01:02;20.43;49.92
72320;SHT30;60269;52.502;16.732;2022-07-09T10:04:36;20.65;48.86
72320;SHT30;60269;52.502;16.732;2022-07-09T10:08:08;20.96;47.98
72320;SHT30;60269;52.502;16.732;2022-07-09T10:11:46;21.19;47.34
72320;SHT30;60269;52.502;16.732;2022-07-09T10:15:25;21.05;48.31
72320;SHT30;60269;52.502;16.732;2022-07-09T10:18:59;20.91;48.81
72320;SHT30;60269;52.502;16.732;2022-07-09T10:22:35;20.23;50.98
72320;SHT30;60269;52.502;16.732;2022-07-09T10:26:07;20.88;50.19
72320;SHT30;60269;52.502;16.732;2022-07-09T10:29:59;21.70;47.48
72320;SHT30;60269;52.502;16.732;2022-07-09T10:33:34;21.12;48.79
72320;SHT30;60269;52.502;16.732;2022-07-09T10:37:06;21.16;48.99
72320;SHT30;60269;52.502;16.732;2022-07-09T10:40:43;21.37;48.79
72320;SHT30;60269;52.502;16.732;2022-07-09T10:44:26;21.63;48.51
72320;SHT30;60269;52.502;16.732;2022-07-09T10:47:59;20.94;50.31
72320;SHT30;60269;52.502;16.732;2022-07-09T10:51:31;20.54;51.31
72320;SHT30;60269;52.502;16.732;2022-07-09T10:55:05;20.43;51.91
72320;SHT30;60269;52.502;16.732;2022-07-09T10:58:37;20.41;52.14
72320;SHT30;60269;52.502;16.732;2022-07-09T11:02:20;20.75;51.12
72320;SHT30;60269;52.502;16.732;2022-07-09T11:05:52;20.44;52.14
72320;SHT30;60269;52.502;16.732;2022-07-09T11:09:27;20.14;52.72
72320;SHT30;60269;52.502;16.732;2022-07-09T11:13:00;19.96;53.91
72320;SHT30;60269;52.502;16.732;2022-07-09T11:16:32;19.48;54.77
72320;SHT30;60269;52.502;16.732;2022-07-09T11:20:04;19.72;54.47
72320;SHT30;60269;52.502;16.732;2022-07-09T11:23:37;19.93;54.25
72320;SHT30;60269;52.502;16.732;2022-07-09T11:27:08;19.72;54.71
72320;SHT30;60269;52.502;16.732;2022-07-09T11:30:40;19.71;56.65
72320;SHT30;60269;52.502;16.732;2022-07-09T11:34:12;19.20;60.07
72320;SHT30;60269;52.502;16.732;2022-07-09T11:37:45;19.37;58.97
72320;SHT30;60269;52.502;16.732;2022-07-09T11:43:14;20.99;53.84
72320;SHT30;60269;52.502;16.732;2022-07-09T11:47:02;20.84;53.69
72320;SHT30;60269;52.502;16.732;2022-07-09T11:50:43;21.94;50.60
72320;SHT30;60269;52.502;16.732;2022-07-09T11:54:26;22.77;48.77
72320;SHT30;60269;52.502;16.732;2022-07-09T11:58:07;21.93;50.23
72320;SHT30;60269;52.502;16.732;2022-07-09T12:01:40;22.38;49.02
72320;SHT30;60269;52.502;16.732;2022-07-09T12:05:12;22.48;49.28
72320;SHT30;60269;52.502;16.732;2022-07-09T12:08:45;22.76;48.40
72320;SHT30;60269;52.502;16.732;2022-07-09T12:12:17;23.12;49.07
72320;SHT30;60269;52.502;16.732;2022-07-09T12:15:49;22.53;48.71
72320;SHT30;60269;52.502;16.732;2022-07-09T12:19:21;22.86;48.49
72320;SHT30;60269;52.502;16.732;2022-07-09T12:22:53;22.63;47.88
72320;SHT30;60269;52.502;16.732;2022-07-09T12:26:24;24.03;45.39
72320;SHT30;60269;52.502;16.732;2022-07-09T12:29:56;23.20;46.09
72320;SHT30;60269;52.502;16.732;2022-07-09T12:33:29;23.28;46.31
72320;SHT30;60269;52.502;16.732;2022-07-09T12:37:02;24.50;43.90
72320;SHT30;60269;52.502;16.732;2022-07-09T12:40:34;25.37;42.48
72320;SHT30;60269;52.502;16.732;2022-07-09T12:44:06;24.86;42.71
72320;SHT30;60269;52.502;16.732;2022-07-09T12:47:39;23.58;45.48
72320;SHT30;60269;52.502;16.732;2022-07-09T12:51:11;23.51;45.76
72320;SHT30;60269;52.502;16.732;2022-07-09T12:54:43;23.85;43.95
72320;SHT30;60269;52.502;16.732;2022-07-09T12:58:15;23.69;44.64
72320;SHT30;60269;52.502;16.732;2022-07-09T13:01:46;23.52;45.74
72320;SHT30;60269;52.502;16.732;2022-07-09T13:05:19;23.80;45.65
72320;SHT30;60269;52.502;16.732;2022-07-09T13:08:51;23.20;46.43
72320;SHT30;60269;52.502;16.732;2022-07-09T13:12:22;22.64;47.60
72320;SHT30;60269;52.502;16.732;2022-07-09T13:15:54;24.60;43.59
72320;SHT30;60269;52.502;16.732;2022-07-09T13:19:26;24.84;42.19
72320;SHT30;60269;52.502;16.732;2022-07-09T13:22:58;23.38;46.18
72320;SHT30;60269;52.502;16.732;2022-07-09T13:26:30;24.60;43.75
72320;SHT30;60269;52.502;16.732;2022-07-09T13:30:07;24.69;43.47
72320;SHT30;60269;52.502;16.732;2022-07-09T13:33:39;23.75;43.13
72320;SHT30;60269;52.502;16.732;2022-07-09T13:37:11;24.58;42.10
72320;SHT30;60269;52.502;16.732;2022-07-09T13:40:44;25.39;40.81
72320;SHT30;60269;52.502;16.732;2022-07-09T13:44:16;24.36;43.28
72320;SHT30;60269;52.502;16.732;2022-07-09T13:47:47;22.86;47.83
72320;SHT30;60269;52.502;16.732;2022-07-09T13:51:19;22.34;48.90
72320;SHT30;60269;52.502;16.732;2022-07-09T13:54:51;21.53;50.66
72320;SHT30;60269;52.502;16.732;2022-07-09T13:58:23;21.28;52.68
72320;SHT30;60269;52.502;16.732;2022-07-09T14:01:54;21.43;50.92
72320;SHT30;60269;52.502;16.732;2022-07-09T14:05:28;21.47;52.64
72320;SHT30;60269;52.502;16.732;2022-07-09T14:09:00;21.54;52.07
72320;SHT30;60269;52.502;16.732;2022-07-09T14:12:32;20.63;55.52
72320;SHT30;60269;52.502;16.732;2022-07-09T14:16:04;20.09;58.37
72320;SHT30;60269;52.502;16.732;2022-07-09T14:19:36;20.99;57.47
72320;SHT30;60269;52.502;16.732;2022-07-09T14:23:08;20.57;61.19
72320;SHT30;60269;52.502;16.732;2022-07-09T14:26:40;19.96;63.69
72320;SHT30;60269;52.502;16.732;2022-07-09T14:30:13;19.92;63.15
72320;SHT30;60269;52.502;16.732;2022-07-09T14:33:45;20.68;59.80
72320;SHT30;60269;52.502;16.732;2022-07-09T14:37:17;21.83;56.24
72320;SHT30;60269;52.502;16.732;2022-07-09T14:40:48;21.84;56.00
72320;SHT30;60269;52.502;16.732;2022-07-09T14:44:20;21.51;56.70
72320;SHT30;60269;52.502;16.732;2022-07-09T14:47:52;21.68;58.83
72320;SHT30;60269;52.502;16.732;2022-07-09T14:51:28;22.31;57.08
72320;SHT30;60269;52.502;16.732;2022-07-09T14:55:00;22.02;56.55
72320;SHT30;60269;52.502;16.732;2022-07-09T14:58:31;22.82;53.90
72320;SHT30;60269;52.502;16.732;2022-07-09T15:02:03;22.76;53.50
72320;SHT30;60269;52.502;16.732;2022-07-09T15:05:35;22.01;55.84
72320;SHT30;60269;52.502;16.732;2022-07-09T15:09:14;21.94;56.15
72320;SHT30;60269;52.502;16.732;2022-07-09T15:12:46;22.06;56.86
72320;SHT30;60269;52.502;16.732;2022-07-09T15:16:18;22.26;54.54
72320;SHT30;60269;52.502;16.732;2022-07-09T15:19:50;22.15;54.66
72320;SHT30;60269;52.502;16.732;2022-07-09T15:23:22;21.12;57.58
72320;SHT30;60269;52.502;16.732;2022-07-09T15:26:54;21.74;57.28
72320;SHT30;60269;52.502;16.732;2022-07-09T15:30:25;20.79;59.79
72320;SHT30;60269;52.502;16.732;2022-07-09T15:33:58;20.68;59.68
72320;SHT30;60269;52.502;16.732;2022-07-09T15:37:29;21.56;57.00
72320;SHT30;60269;52.502;16.732;2022-07-09T15:41:02;21.15;58.15
72320;SHT30;60269;52.502;16.732;2022-07-09T15:44:34;20.09;62.25
72320;SHT30;60269;52.502;16.732;2022-07-09T15:48:06;20.13;62.61
72320;SHT30;60269;52.502;16.732;2022-07-09T15:51:37;19.52;64.28
72320;SHT30;60269;52.502;16.732;2022-07-09T15:55:10;19.64;64.44
72320;SHT30;60269;52.502;16.732;2022-07-09T15:58:42;19.75;63.40
72320;SHT30;60269;52.502;16.732;2022-07-09T16:02:14;19.83;63.76
72320;SHT30;60269;52.502;16.732;2022-07-09T16:05:45;19.76;63.54
72320;SHT30;60269;52.502;16.732;2022-07-09T16:09:17;19.76;63.24
72320;SHT30;60269;52.502;16.732;2022-07-09T16:12:49;20.34;61.33
72320;SHT30;60269;52.502;16.732;2022-07-09T16:16:21;21.42;58.63
72320;SHT30;60269;52.502;16.732;2022-07-09T16:19:53;22.97;53.70
72320;SHT30;60269;52.502;16.732;2022-07-09T16:23:25;23.00;53.45
72320;SHT30;60269;52.502;16.732;2022-07-09T16:26:57;23.30;53.15
72320;SHT30;60269;52.502;16.732;2022-07-09T16:30:29;22.24;56.00
72320;SHT30;60269;52.502;16.732;2022-07-09T16:34:01;21.05;59.66
72320;SHT30;60269;52.502;16.732;2022-07-09T16:37:33;21.20;59.80
72320;SHT30;60269;52.502;16.732;2022-07-09T16:41:05;21.61;59.05
72320;SHT30;60269;52.502;16.732;2022-07-09T16:44:37;22.31;56.69
72320;SHT30;60269;52.502;16.732;2022-07-09T16:48:09;22.02;57.26
72320;SHT30;60269;52.502;16.732;2022-07-09T16:51:41;22.08;56.57
72320;SHT30;60269;52.502;16.732;2022-07-09T16:55:14;21.15;59.99
72320;SHT30;60269;52.502;16.732;2022-07-09T16:58:47;20.36;62.63
72320;SHT30;60269;52.502;16.732;2022-07-09T17:02:18;20.72;61.40
72320;SHT30;60269;52.502;16.732;2022-07-09T17:05:50;22.19;55.99
72320;SHT30;60269;52.502;16.732;2022-07-09T17:09:22;22.73;54.65
72320;SHT30;60269;52.502;16.732;2022-07-09T17:12:54;21.39;57.78
72320;SHT30;60269;52.502;16.732;2022-07-09T17:16:26;21.10;59.37
72320;SHT30;60269;52.502;16.732;2022-07-09T17:19:59;21.13;59.51
72320;SHT30;60269;52.502;16.732;2022-07-09T17:23:30;20.87;60.27
72320;SHT30;60269;52.502;16.732;2022-07-09T17:27:02;21.16;59.51
72320;SHT30;60269;52.502;16.732;2022-07-09T17:30:34;21.20;58.75
72320;SHT30;60269;52.502;16.732;2022-07-09T17:34:06;20.12;61.74
72320;SHT30;60269;52.502;16.732;2022-07-09T17:37:39;19.25;64.47
72320;SHT30;60269;52.502;16.732;2022-07-09T17:41:11;19.93;63.51
72320;SHT30;60269;52.502;16.732;2022-07-09T17:44:43;20.26;62.42
72320;SHT30;60269;52.502;16.732;2022-07-09T17:48:15;20.99;60.41
72320;SHT30;60269;52.502;16.732;2022-07-09T17:51:47;20.12;63.85
72320;SHT30;60269;52.502;16.732;2022-07-09T17:55:21;19.89;64.63
72320;SHT30;60269;52.502;16.732;2022-07-09T17:58:54;19.89;64.65
72320;SHT30;60269;52.502;16.732;2022-07-09T18:02:26;19.69;65.44
72320;SHT30;60269;52.502;16.732;2022-07-09T18:05:58;19.64;65.12
72320;SHT30;60269;52.502;16.732;2022-07-09T18:09:36;19.10;65.79
72320;SHT30;60269;52.502;16.732;2022-07-09T18:13:07;18.11;68.11
72320;SHT30;60269;52.502;16.732;2022-07-09T18:16:39;17.67;68.64
72320;SHT30;60269;52.502;16.732;2022-07-09T18:20:14;17.29;68.91
72320;SHT30;60269;52.502;16.732;2022-07-09T18:23:46;17.04;68.33
72320;SHT30;60269;52.502;16.732;2022-07-09T18:27:19;16.87;68.69
72320;SHT30;60269;52.502;16.732;2022-07-09T18:30:51;16.68;69.13
72320;SHT30;60269;52.502;16.732;2022-07-09T18:34:24;16.53;69.86
72320;SHT30;60269;52.502;16.732;2022-07-09T18:37:56;16.32;70.58
72320;SHT30;60269;52.502;16.732;2022-07-09T18:41:28;16.19;71.12
72320;SHT30;60269;52.502;16.732;2022-07-09T18:45:00;16.16;71.30
72320;SHT30;60269;52.502;16.732;2022-07-09T18:48:32;16.16;71.66
72320;SHT30;60269;52.502;16.732;2022-07-09T18:52:04;16.15;72.02
72320;SHT30;60269;52.502;16.732;2022-07-09T18:55:36;16.22;72.06
72320;SHT30;60269;52.502;16.732;2022-07-09T18:59:08;16.29;72.05
72320;SHT30;60269;52.502;16.732;2022-07-09T19:02:40;16.42;72.08
72320;SHT30;60269;52.502;16.732;2022-07-09T19:06:12;16.34;72.48
72320;SHT30;60269;52.502;16.732;2022-07-09T19:09:44;16.36;73.14
72320;SHT30;60269;52.502;16.732;2022-07-09T19:13:16;16.37;72.92
72320;SHT30;60269;52.502;16.732;2022-07-09T19:16:47;16.36;72.85
72320;SHT30;60269;52.502;16.732;2022-07-09T19:20:20;16.39;73.52
72320;SHT30;60269;52.502;16.732;2022-07-09T19:23:51;16.04;78.37
72320;SHT30;60269;52.502;16.732;2022-07-09T19:27:23;15.24;81.73
72320;SHT30;60269;52.502;16.732;2022-07-09T19:30:55;14.73;88.02
72320;SHT30;60269;52.502;16.732;2022-07-09T19:34:47;14.51;90.92
72320;SHT30;60269;52.502;16.732;2022-07-09T19:38:19;14.44;90.75
72320;SHT30;60269;52.502;16.732;2022-07-09T19:41:51;14.41;89.89
72320;SHT30;60269;52.502;16.732;2022-07-09T19:45:22;14.31;91.79
72320;SHT30;60269;52.502;16.732;2022-07-09T19:48:56;14.32;92.62
72320;SHT30;60269;52.502;16.732;2022-07-09T19:52:28;14.32;92.90
72320;SHT30;60269;52.502;16.732;2022-07-09T19:56:00;14.34;93.42
72320;SHT30;60269;52.502;16.732;2022-07-09T19:59:32;14.35;94.06
72320;SHT30;60269;52.502;16.732;2022-07-09T20:03:04;14.38;94.12
72320;SHT30;60269;52.502;16.732;2022-07-09T20:06:38;14.37;94.31
72320;SHT30;60269;52.502;16.732;2022-07-09T20:10:11;14.35;94.19
72320;SHT30;60269;52.502;16.732;2022-07-09T20:13:42;14.37;94.67
72320;SHT30;60269;52.502;16.732;2022-07-09T20:17:17;14.35;94.43
72320;SHT30;60269;52.502;16.732;2022-07-09T20:20:50;14.34;94.29
72320;SHT30;60269;52.502;16.732;2022-07-09T20:24:22;14.35;94.50
72320;SHT30;60269;52.502;16.732;2022-07-09T20:27:53;14.35;94.86
72320;SHT30;60269;52.502;16.732;2022-07-09T20:31:25;14.27;94.65
72320;SHT30;60269;52.502;16.732;2022-07-09T20:34:57;14.24;94.54
72320;SHT30;60269;52.502;16.732;2022-07-09T20:38:29;14.22;94.68
72320;SHT30;60269;52.502;16.732;2022-07-09T20:42:01;14.18;94.77
72320;SHT30;60269;52.502;16.732;2022-07-09T20:45:33;14.18;94.53
72320;SHT30;60269;52.502;16.732;2022-07-09T20:49:07;14.21;94.86
72320;SHT30;60269;52.502;16.732;2022-07-09T20:52:40;14.17;94.91
72320;SHT30;60269;52.502;16.732;2022-07-09T20:56:12;14.17;94.99
72320;SHT30;60269;52.502;16.732;2022-07-09T20:59:46;14.21;95.01
72320;SHT30;60269;52.502;16.732;2022-07-09T21:03:17;14.21;95.04
72320;SHT30;60269;52.502;16.732;2022-07-09T21:06:49;14.22;95.09
72320;SHT30;60269;52.502;16.732;2022-07-09T21:10:21;14.22;95.28
72320;SHT30;60269;52.502;16.732;2022-07-09T21:13:53;14.24;95.06
72320;SHT30;60269;52.502;16.732;2022-07-09T21:17:25;14.28;94.91
72320;SHT30;60269;52.502;16.732;2022-07-09T21:21:19;14.31;94.79
72320;SHT30;60269;52.502;16.732;2022-07-09T21:24:50;14.31;94.75
72320;SHT30;60269;52.502;16.732;2022-07-09T21:28:22;14.32;94.79
72320;SHT30;60269;52.502;16.732;2022-07-09T21:31:55;14.30;95.11
72320;SHT30;60269;52.502;16.732;2022-07-09T21:35:29;14.31;95.30
72320;SHT30;60269;52.502;16.732;2022-07-09T21:39:01;14.34;95.46
72320;SHT30;60269;52.502;16.732;2022-07-09T21:42:33;14.37;95.54
72320;SHT30;60269;52.502;16.732;2022-07-09T21:46:05;14.38;95.72
72320;SHT30;60269;52.502;16.732;2022-07-09T21:49:37;14.40;95.68
72320;SHT30;60269;52.502;16.732;2022-07-09T21:53:08;14.37;95.52
72320;SHT30;60269;52.502;16.732;2022-07-09T21:56:40;14.40;95.46
72320;SHT30;60269;52.502;16.732;2022-07-09T22:00:15;14.40;95.61
72320;SHT30;60269;52.502;16.732;2022-07-09T22:03:48;14.38;95.64